Latest Weather Observations for Toowoomba

IDQ60801

Issued at 1:32 am EST Wednesday 1 April 2015 (issued every 30 minutes, with the page automatically refreshed every 10 minutes)

About weather observations | Map of weather stations | Latest weather observations for QLD | Other Formats
Station Details ID: 041529 Name: TOOWOOMBA AIRPORT Lat: -27.54 Lon: 151.91 Height: 640.9 m
Data from the previous 72 hours. | See also: Recent months at Toowoomba
Date/Time
EST
Temp
°C
App
Temp
°C
Dew
Point
Rel
Hum
%
Delta-T
°C
Wind Press
QNH
hPa
Press
MSL
hPa
Rain
since 9 am
mm
Dir
 
Spd
km/h
Gust
km/h
Spd
kts
Gust
kts
01/01:30am 16.2 14.6 15.1 93 0.7 E 17 22 9 12 1024.0 1020.8 0.0
01/01:00am 16.2 14.3 15.2 94 0.6 ESE 19 24 10 13 1024.0 1020.8 0.0
01/12:30am 16.3 13.9 15.5 95 0.5 ESE 22 30 12 16 1024.2 1021.1 0.0
 
Date/Time
EST
Temp
°C
App
Temp
°C
Dew
Point
Rel
Hum
%
Delta-T
°C
Wind Press
QNH
hPa
Press
MSL
hPa
Rain
since 9 am
mm
Dir
 
Spd
km/h
Gust
km/h
Spd
kts
Gust
kts
31/11:30pm 16.5 13.6 15.2 92 0.8 E 24 32 13 17 1024.6 1021.5 0.0
31/11:00pm 16.5 14.7 15.4 93 0.7 E 19 24 10 13 1024.9 1021.8 0.0
31/10:30pm 16.4 14.3 15.1 92 0.8 E 20 28 11 15 1025.0 1021.9 0.0
31/10:00pm 16.6 13.9 15.5 93 0.7 E 24 30 13 16 1025.3 1022.1 0.0
31/09:30pm 16.8 14.5 15.7 93 0.7 E 22 28 12 15 1025.3 1022.1 0.0
31/09:00pm 16.9 14.6 15.8 93 0.7 E 22 28 12 15 1025.0 1021.9 0.0
31/08:30pm 16.9 14.1 15.4 91 0.9 E 24 35 13 19 1025.0 1021.9 0.0
31/08:00pm 17.1 13.9 15.3 89 1.1 E 26 33 14 18 1024.8 1021.7 0.0
31/07:48pm 17.2 13.9 15.0 87 1.3 E 26 33 14 18 1024.8 1021.7 0.0
31/07:38pm 17.2 13.4 14.8 86 1.4 E 28 37 15 20 1024.8 1021.7 0.0
31/07:30pm 17.3 13.5 14.8 85 1.5 E 28 37 15 20 1024.7 1021.6 0.0
31/07:21pm 17.6 14.5 15.6 88 1.2 E 26 33 14 18 1024.7 1021.6 0.0
31/07:00pm 17.9 14.3 15.3 85 1.6 E 28 35 15 19 1024.2 1021.1 0.0
31/06:30pm 18.1 14.5 15.2 83 1.7 E 28 37 15 20 1024.0 1020.8 0.0
31/06:00pm 18.3 14.7 14.2 77 2.4 E 26 35 14 19 1023.7 1020.5 0.0
31/05:30pm 18.6 15.1 13.5 72 3.0 E 24 30 13 16 1023.7 1020.5 0.0
31/05:00pm 19.0 15.1 14.3 74 2.8 E 28 35 15 19 1023.4 1020.3 0.0
31/04:30pm 19.8 15.9 14.4 71 3.2 E 28 35 15 19 1023.1 1020.0 0.0
31/04:00pm 20.6 17.8 14.3 67 3.8 E 22 30 12 16 1023.3 1020.2 0.0
31/03:30pm 21.2 17.9 14.1 64 4.2 ENE 24 30 13 16 1023.1 1020.0 0.0
31/03:00pm 21.5 18.7 14.4 64 4.3 E 22 30 12 16 1023.3 1020.2 0.0
31/02:30pm 21.8 18.4 13.7 60 4.8 E 24 33 13 18 1023.6 1020.4 0.0
31/02:00pm 22.1 18.5 13.2 57 5.2 ENE 24 33 13 18 1023.4 1020.3 0.0
31/01:30pm 22.7 19.0 14.0 58 5.2 E 26 35 14 19 1023.7 1020.5 0.0
31/01:00pm 22.6 19.5 14.4 60 4.9 ENE 24 35 13 19 1024.3 1021.2 0.0
31/12:30pm 22.2 19.1 14.6 62 4.6 ENE 24 35 13 19 1024.9 1021.8 0.0
31/12:00pm 21.8 17.5 14.4 63 4.4 E 30 43 16 23 1024.8 1021.7 0.0
31/11:30am 21.3 17.0 14.5 65 4.1 E 30 39 16 21 1025.0 1021.9 0.0
31/11:00am 20.5 16.4 14.8 70 3.4 E 30 37 16 20 1025.6 1022.5 0.0
31/10:30am 21.1 17.7 15.9 72 3.2 E 28 39 15 21 1025.8 1022.7 0.0
31/10:00am 19.1 14.5 14.6 75 2.7 E 32 39 17 21 1026.2 1023.1 0.0
31/09:30am 20.1 16.4 15.9 77 2.6 E 30 39 16 21 1026.0 1022.9 0.0
31/09:00am 18.8 15.2 15.3 80 2.1 E 28 33 15 18 1025.9 1022.8 0.0
31/08:30am 17.9 14.4 14.6 81 2.0 E 26 33 14 18 1025.9 1022.8 0.0
31/08:00am 17.7 13.6 14.8 83 1.7 E 30 37 16 20 1025.6 1022.5 0.0
31/07:30am 17.2 13.7 14.5 84 1.6 E 26 35 14 19 1025.4 1022.2 0.0
31/07:00am 17.2 13.4 14.7 85 1.5 E 28 33 15 18 1024.8 1021.7 0.0
31/06:30am 16.9 13.4 14.5 86 1.4 E 26 32 14 17 1024.6 1021.5 0.0
31/06:00am 16.8 13.7 14.6 87 1.3 E 24 30 13 16 1024.4 1021.3 0.0
31/05:30am 16.8 13.7 14.6 87 1.3 E 24 32 13 17 1024.0 1020.8 0.0
31/05:00am 16.7 13.2 14.5 87 1.3 E 26 32 14 17 1023.7 1020.5 0.0
31/04:30am 16.8 13.7 14.4 86 1.4 E 24 28 13 15 1023.9 1020.7 0.0
31/04:00am 16.9 13.8 14.4 85 1.5 E 24 32 13 17 1023.8 1020.6 0.0
31/03:30am 17.0 14.2 14.3 84 1.6 E 22 32 12 17 1023.8 1020.6 0.0
31/03:00am 17.1 14.3 14.2 83 1.7 E 22 30 12 16 1024.1 1021.0 0.0
31/02:30am 17.0 14.2 14.3 84 1.6 E 22 30 12 16 1024.3 1021.2 0.0
31/02:00am 17.0 14.2 14.3 84 1.6 E 22 30 12 16 1024.7 1021.6 0.0
31/01:30am 17.2 14.1 14.5 84 1.6 E 24 32 13 17 1024.9 1021.8 0.0
31/01:00am 17.3 13.8 14.6 84 1.6 E 26 32 14 17 1025.3 1022.1 0.0
31/12:30am 17.4 14.3 14.5 83 1.7 E 24 30 13 16 1025.6 1022.5 0.0
31/12:00am 17.5 14.8 14.6 83 1.7 E 22 28 12 15 1025.8 1022.7 0.0
 
Date/Time
EST
Temp
°C
App
Temp
°C
Dew
Point
Rel
Hum
%
Delta-T
°C
Wind Press
QNH
hPa
Press
MSL
hPa
Rain
since 9 am
mm
Dir
 
Spd
km/h
Gust
km/h
Spd
kts
Gust
kts
30/11:30pm 17.6 15.0 14.9 84 1.6 E 22 28 12 15 1025.9 1022.8 0.0
30/11:00pm 17.6 14.3 14.9 84 1.6 E 26 32 14 17 1025.9 1022.8 0.0
30/10:30pm 17.8 14.1 14.9 83 1.7 E 28 33 15 18 1025.8 1022.7 0.0
30/10:00pm 17.9 14.1 14.6 81 2.0 E 28 33 15 18 1026.0 1022.9 0.0
30/09:30pm 18.2 15.1 14.5 79 2.2 E 24 32 13 17 1026.3 1023.2 0.0
30/09:00pm 18.3 15.7 15.0 81 2.0 E 22 32 12 17 1026.3 1023.2 0.0
30/08:30pm 18.5 15.6 15.2 81 2.0 E 24 32 13 17 1026.4 1023.3 0.0
30/08:00pm 18.7 16.3 15.4 81 2.0 E 22 28 12 15 1026.1 1023.0 0.0
30/07:30pm 18.9 17.0 15.8 82 1.9 E 20 26 11 14 1025.9 1022.8 0.0
30/07:00pm 19.3 17.0 15.6 79 2.2 E 22 28 12 15 1025.6 1022.5 0.0
30/06:30pm 19.4 18.1 15.9 80 2.1 ENE 17 20 9 11 1025.3 1022.1 0.0
30/06:00pm 19.5 18.2 15.8 79 2.3 ENE 17 22 9 12 1024.9 1021.8 0.0
30/05:30pm 20.5 18.3 15.9 75 2.8 E 22 28 12 15 1024.7 1021.6 0.0
30/05:00pm 21.3 20.5 16.0 72 3.3 E 15 20 8 11 1024.6 1021.5 0.0
30/04:30pm 21.4 20.4 15.7 70 3.5 ENE 15 20 8 11 1024.4 1021.3 0.0
30/04:00pm 21.6 20.3 15.7 69 3.6 ENE 17 24 9 13 1024.1 1021.0 0.0
30/03:30pm 21.7 20.2 15.3 67 3.9 ENE 17 22 9 12 1024.0 1020.8 0.0
30/03:00pm 22.3 20.2 15.2 64 4.3 ENE 20 28 11 15 1023.9 1020.7 0.0
30/02:30pm 22.2 21.0 16.0 68 3.8 ENE 17 20 9 11 1023.9 1020.7 0.0
30/02:00pm 21.0 18.9 15.1 69 3.6 ENE 20 26 11 14 1024.0 1020.8 0.0
30/01:30pm 21.3 19.4 15.2 68 3.7 ENE 19 24 10 13 1024.4 1021.3 0.0
30/01:00pm 21.6 19.6 15.4 68 3.8 ENE 20 26 11 14 1025.1 1022.0 0.0
30/12:30pm 21.3 19.2 15.2 68 3.7 ENE 20 30 11 16 1025.5 1022.3 0.0
30/12:00pm 21.3 17.9 15.8 71 3.4 E 28 35 15 19 1025.4 1022.2 0.0
30/11:30am 21.1 17.5 15.2 69 3.6 ENE 28 37 15 20 1026.1 1023.0 0.0
30/11:00am 20.7 17.6 15.7 73 3.1 ENE 26 33 14 18 1026.5 1023.4 0.0
30/10:30am 20.4 17.4 15.8 75 2.8 ENE 26 35 14 19 1026.6 1023.5 0.0
30/10:00am 19.7 16.2 15.6 77 2.5 ENE 28 37 15 20 1026.6 1023.5 0.0
30/09:30am 20.3 18.2 16.3 78 2.5 ENE 22 30 12 16 1027.3 1024.2 0.0
30/09:24am 19.9 18.4 16.7 82 2.0 ENE 20 26 11 14 1027.4 1024.3 0.0
30/09:00am 18.1 17.3 16.1 88 1.2 NE 15 20 8 11 1027.6 1024.5 0.0
30/08:30am 17.7 15.1 16.0 90 1.0 E 24 30 13 16 1027.1 1024.0 0.0
30/08:22am 17.7 15.1 16.0 90 1.0 E 24 30 13 16 1026.9 1023.7 0.0
30/08:00am 17.7 15.9 15.9 89 1.1 E 20 28 11 15 1026.7 1023.6 0.0
30/07:52am 17.8 15.7 16.1 90 1.0 E 22 28 12 15 1026.4 1023.3 0.0
30/07:30am 17.4 15.5 15.7 90 1.0 E 20 26 11 14 1026.5 1023.4 0.0
30/07:24am 17.2 15.2 15.5 90 1.0 E 20 26 11 14 1026.4 1023.3 0.0
30/07:22am 17.3 15.4 15.8 91 0.9 E 20 26 11 14 1026.3 1023.2 0.0
30/07:00am 17.0 14.7 15.7 92 0.8 E 22 28 12 15 1025.9 1022.8 0.0
30/06:49am 16.8 14.5 15.7 93 0.7 E 22 28 12 15 1025.8 1022.7 0.0
30/06:30am 16.4 14.0 15.4 94 0.6 E 22 28 12 15 1025.3 1022.1 0.0
30/06:00am 16.2 13.3 15.2 94 0.6 E 24 32 13 17 1024.9 1021.8 0.0
30/05:30am 16.2 13.3 15.1 93 0.7 E 24 30 13 16 1024.8 1021.7 0.0
30/05:00am 16.6 13.4 15.3 92 0.8 E 26 33 14 18 1024.4 1021.3 0.0
30/04:30am 16.6 13.8 15.3 92 0.8 E 24 30 13 16 1024.4 1021.3 0.0
30/04:00am 16.4 13.2 15.3 93 0.7 E 26 32 14 17 1024.0 1020.8 0.0
30/03:30am 16.5 13.3 15.2 92 0.8 E 26 32 14 17 1023.9 1020.7 0.0
30/03:00am 16.8 13.6 15.2 90 1.0 E 26 32 14 17 1024.0 1020.8 0.0
30/02:30am 16.8 14.3 15.2 90 1.0 E 22 28 12 15 1024.3 1021.2 0.0
30/02:00am 16.9 14.4 15.2 90 1.0 E 22 28 12 15 1024.6 1021.5 0.0
30/01:30am 16.9 14.4 15.1 89 1.1 E 22 28 12 15 1024.9 1021.8 0.0
30/01:00am 16.7 13.8 15.1 90 1.0 E 24 30 13 16 1024.9 1021.8 0.0
30/12:30am 16.9 14.0 15.1 89 1.1 E 24 30 13 16 1025.1 1022.0 0.0
30/12:00am 17.1 13.8 14.9 87 1.3 E 26 33 14 18 1025.4 1022.2 0.0
 
Date/Time
EST
Temp
°C
App
Temp
°C
Dew
Point
Rel
Hum
%
Delta-T
°C
Wind Press
QNH
hPa
Press
MSL
hPa
Rain
since 9 am
mm
Dir
 
Spd
km/h
Gust
km/h
Spd
kts
Gust
kts
29/11:30pm 17.3 13.6 14.9 86 1.4 E 28 37 15 20 1025.3 1022.1 0.0
29/11:00pm 17.4 13.7 15.0 86 1.4 E 28 35 15 19 1025.6 1022.5 0.0
29/10:30pm 17.5 14.2 15.0 85 1.5 E 26 32 14 17 1025.8 1022.7 0.0
29/10:00pm 17.8 14.5 15.1 84 1.6 E 26 35 14 19 1025.9 1022.8 0.0
29/09:30pm 18.1 14.5 15.2 83 1.7 E 28 35 15 19 1025.7 1022.6 0.0
29/09:00pm 18.3 14.8 15.4 83 1.7 E 28 35 15 19 1025.9 1022.8 0.0
29/08:30pm 18.7 15.6 15.6 82 1.9 E 26 32 14 17 1025.8 1022.7 0.0
29/08:00pm 19.3 16.7 16.0 81 2.0 E 24 30 13 16 1025.5 1022.3 0.0
29/07:30pm 20.1 17.9 15.9 77 2.6 E 22 32 12 17 1025.3 1022.1 0.0
29/07:00pm 20.7 18.1 15.9 74 2.9 E 24 30 13 16 1024.8 1021.7 0.0
29/06:30pm 21.3 19.3 15.4 69 3.6 E 20 24 11 13 1024.5 1021.4 0.0
29/06:00pm 22.1 20.2 15.2 65 4.2 ENE 19 24 10 13 1024.2 1021.1 0.0
29/05:30pm 23.1 20.8 14.7 59 5.1 E 20 24 11 13 1023.9 1020.7 0.0
29/05:00pm 23.5 20.9 13.7 54 5.9 E 20 26 11 14 1023.6 1020.4 0.0
29/04:30pm 24.6 22.7 14.1 52 6.4 E 17 24 9 13 1023.6 1020.4 0.0
29/04:00pm 25.2 22.6 13.7 49 6.9 ENE 20 24 11 13 1023.6 1020.4 0.0
29/03:30pm 25.1 23.5 13.9 49 6.8 ENE 15 22 8 12 1023.8 1020.6 0.0
29/03:00pm 25.2 23.7 14.3 50 6.6 ENE 15 19 8 10 1023.8 1020.6 0.0
29/02:30pm 25.0 22.8 15.0 53 6.2 E 20 24 11 13 1023.8 1020.6 0.0
29/02:00pm 24.6 23.5 14.4 53 6.2 ESE 13 22 7 12 1024.3 1021.2 0.0
29/01:30pm 24.7 24.0 15.3 56 5.8 ENE 13 22 7 12 1024.5 1021.4 0.0
29/01:00pm 24.0 23.0 15.5 59 5.2 E 15 28 8 15 1024.9 1021.8 0.0
29/12:30pm 24.2 23.0 17.0 64 4.6 E 19 28 10 15 1025.1 1022.0 0.0
29/12:00pm 23.8 22.2 16.1 62 4.8 ENE 19 28 10 15 1025.5 1022.3 0.0
29/11:30am 22.8 20.6 14.9 61 4.8 ENE 20 30 11 16 1025.9 1022.8 0.0
29/11:00am 22.9 20.6 15.7 64 4.4 ENE 22 30 12 16 1026.4 1023.3 0.0
29/10:30am 22.2 19.5 15.5 66 4.1 ENE 24 32 13 17 1026.5 1023.4 0.0
29/10:00am 22.0 19.0 15.8 68 3.8 ENE 26 32 14 17 1026.7 1023.6 0.0
29/09:30am 20.9 18.3 15.9 73 3.1 ENE 24 32 13 17 1026.9 1023.7 0.0
29/09:00am 20.1 17.9 15.9 77 2.6 ENE 22 30 12 16 1026.6 1023.5 0.0
29/08:30am 19.1 16.4 15.6 80 2.1 ENE 24 32 13 17 1026.4 1023.3 0.0
29/08:00am 19.3 16.8 16.2 82 1.9 E 24 33 13 18 1026.0 1022.9 0.0
29/07:30am 18.5 16.0 16.1 86 1.5 E 24 32 13 17 1025.5 1022.3 0.0
29/07:00am 17.4 14.6 16.3 93 0.7 E 26 33 14 18 1025.0 1021.9 0.0
29/06:30am 16.6 14.0 16.0 96 0.4 ESE 24 30 13 16 1024.6 1021.5 0.0
29/06:00am 16.2 14.2 15.6 96 0.4 E 20 26 11 14 1024.4 1021.3 0.0
29/05:30am 16.2 14.2 15.6 96 0.4 E 20 24 11 13 1024.0 1020.8 0.0
29/05:00am 16.3 13.6 15.5 95 0.5 E 24 30 13 16 1023.6 1020.4 0.0
29/04:30am 16.4 13.6 15.4 94 0.6 E 24 30 13 16 1023.2 1020.1 0.0
29/04:00am 16.4 14.0 15.3 93 0.7 E 22 28 12 15 1023.0 1019.9 0.0
29/03:30am 16.5 14.5 15.4 93 0.7 E 20 28 11 15 1023.0 1019.9 0.0
29/03:00am 16.4 14.3 15.1 92 0.8 E 20 24 11 13 1023.0 1019.9 0.0
29/02:30am 16.5 13.9 15.0 91 0.9 E 22 28 12 15 1023.0 1019.9 0.0
29/02:00am 16.6 14.0 14.8 89 1.1 E 22 26 12 14 1023.3 1020.2 0.0

Other Formats:

Comma delimited format used in spreadsheet applications
http://www.bom.gov.au/fwo/IDQ60801/IDQ60801.95551.axf

JavaScript Object Notation format (JSON) in row-major order
http://www.bom.gov.au/fwo/IDQ60801/IDQ60801.95551.json